Time;durP1;ratioP1;P1;durP2;ratioP2;P2;SDS_P1;SDS_P2;PMS_P1;PMS_P2;Temp;Humidity;BMP_temperature;BMP_pressure;BME280_temperature;BME280_humidity;BME280_pressure;Samples;Min_cycle;Max_cycle;Signal;HPM_P1;HPM_P2
2023/06/17 00:00:44;;;;;;;0.98;0.88;;;;;;;;;;5000798;28;20634;-77
2023/06/17 00:03:10;;;;;;;0.98;0.68;;;;;;;;;;5001945;28;20040;-77
2023/06/17 00:05:36;;;;;;;1.05;0.82;;;;;;;;;;4996008;28;20121;-76
2023/06/17 00:08:02;;;;;;;0.88;0.70;;;;;;;;;;5001138;28;20022;-77
2023/06/17 00:10:28;;;;;;;1.35;0.90;;;;;;;;;;5000773;28;20545;-77
2023/06/17 00:12:54;;;;;;;0.82;0.80;;;;;;;;;;5005189;28;20025;-77
2023/06/17 00:15:22;;;;;;;2.55;0.98;;;;;;;;;;4998910;28;20076;-77
2023/06/17 00:17:50;;;;;;;1.08;0.80;;;;;;;;;;4995385;28;20033;-77
2023/06/17 00:20:16;;;;;;;1.15;1.00;;;;;;;;;;5004414;28;20034;-77
2023/06/17 00:22:46;;;;;;;1.00;0.88;;;;;;;;;;4998424;28;20041;-77
2023/06/17 00:25:12;;;;;;;1.37;0.87;;;;;;;;;;4996553;28;20165;-77
2023/06/17 00:27:39;;;;;;;0.90;0.80;;;;;;;;;;4998487;28;20033;-77
2023/06/17 00:30:05;;;;;;;1.63;1.00;;;;;;;;;;4997693;28;20061;-77
2023/06/17 00:32:31;;;;;;;1.60;0.70;;;;;;;;;;4985672;28;20014;-77
2023/06/17 00:34:57;;;;;;;0.85;0.85;;;;;;;;;;4997000;28;20018;-77
2023/06/17 00:37:23;;;;;;;1.25;0.98;;;;;;;;;;4995535;28;20022;-77
2023/06/17 00:39:49;;;;;;;1.10;1.00;;;;;;;;;;4993916;28;20396;-77
2023/06/17 00:42:15;;;;;;;2.05;0.88;;;;;;;;;;4996689;28;20026;-77
2023/06/17 00:44:41;;;;;;;1.67;1.08;;;;;;;;;;5006753;28;20037;-77
2023/06/17 00:47:08;;;;;;;3.13;1.35;;;;;;;;;;4993411;28;20065;-77
2023/06/17 00:49:35;;;;;;;1.33;1.13;;;;;;;;;;4996018;28;20201;-77
2023/06/17 00:52:05;;;;;;;1.98;1.25;;;;;;;;;;4998840;28;20385;-77
2023/06/17 00:54:32;;;;;;;1.20;0.90;;;;;;;;;;5005347;28;20030;-77
2023/06/17 00:57:01;;;;;;;1.13;0.80;;;;;;;;;;4993014;28;20019;-77
2023/06/17 00:59:27;;;;;;;0.60;0.60;;;;;;;;;;5003276;28;20117;-77
2023/06/17 01:01:53;;;;;;;0.80;0.80;;;;;;;;;;4996435;28;20026;-77
2023/06/17 01:04:19;;;;;;;1.23;0.95;;;;;;;;;;4998229;28;20565;-76
2023/06/17 01:06:50;;;;;;;1.42;0.93;;;;;;;;;;4991327;28;20463;-77
2023/06/17 01:09:18;;;;;;;3.40;0.98;;;;;;;;;;4995533;28;20030;-77
2023/06/17 01:11:45;;;;;;;1.20;0.93;;;;;;;;;;4993127;28;20031;-77
2023/06/17 01:14:11;;;;;;;1.45;0.70;;;;;;;;;;4992594;28;20398;-77
2023/06/17 01:16:42;;;;;;;1.00;0.90;;;;;;;;;;4997890;28;20018;-77
2023/06/17 01:19:18;;;;;;;1.55;0.90;;;;;;;;;;4996954;28;20033;-77
2023/06/17 01:21:51;;;;;;;1.10;1.00;;;;;;;;;;4996398;28;20026;-75
2023/06/17 01:24:25;;;;;;;1.70;1.20;;;;;;;;;;5013595;28;20029;-76
2023/06/17 01:26:56;;;;;;;1.40;0.90;;;;;;;;;;5003092;28;20030;-76
2023/06/17 01:29:23;;;;;;;1.42;0.98;;;;;;;;;;5003476;28;20449;-75
2023/06/17 01:31:50;;;;;;;1.90;0.90;;;;;;;;;;5002392;28;20041;-75
2023/06/17 01:34:18;;;;;;;1.60;1.13;;;;;;;;;;5004547;28;20385;-75
2023/06/17 01:36:45;;;;;;;0.93;0.80;;;;;;;;;;5002533;28;20018;-76
2023/06/17 01:39:14;;;;;;;1.10;1.00;;;;;;;;;;4999891;28;20038;-76
2023/06/17 01:41:40;;;;;;;1.48;0.90;;;;;;;;;;5004727;28;20038;-76
2023/06/17 01:44:07;;;;;;;1.05;0.80;;;;;;;;;;5001118;28;20034;-75
2023/06/17 01:46:35;;;;;;;1.17;0.82;;;;;;;;;;4995934;28;20112;-76
2023/06/17 01:49:01;;;;;;;1.20;1.00;;;;;;;;;;5009626;28;20034;-76
2023/06/17 01:51:27;;;;;;;2.20;0.90;;;;;;;;;;4999969;28;20030;-76
2023/06/17 01:53:53;;;;;;;1.02;0.90;;;;;;;;;;5005673;28;20060;-76
2023/06/17 01:56:19;;;;;;;1.02;0.95;;;;;;;;;;4992914;28;20470;-76
2023/06/17 01:58:45;;;;;;;1.38;1.20;;;;;;;;;;4998573;28;20032;-76
2023/06/17 02:01:11;;;;;;;1.70;0.80;;;;;;;;;;4995665;28;20272;-76
2023/06/17 02:03:37;;;;;;;1.33;1.23;;;;;;;;;;5004711;28;20025;-77
2023/06/17 02:06:03;;;;;;;1.08;0.80;;;;;;;;;;5002453;28;20513;-77
2023/06/17 02:08:29;;;;;;;1.27;0.90;;;;;;;;;;5002748;28;20041;-77
2023/06/17 02:10:55;;;;;;;1.23;0.98;;;;;;;;;;5004506;28;20037;-77
2023/06/17 02:13:21;;;;;;;1.67;1.05;;;;;;;;;;4979457;28;20077;-77
2023/06/17 02:15:47;;;;;;;3.70;1.40;;;;;;;;;;4999454;28;20466;-77
2023/06/17 02:18:14;;;;;;;1.00;0.90;;;;;;;;;;5001902;28;20026;-77
2023/06/17 02:20:40;;;;;;;1.75;1.10;;;;;;;;;;5004531;28;20310;-77
2023/06/17 02:23:05;;;;;;;2.22;1.02;;;;;;;;;;5000244;28;20057;-77
2023/06/17 02:25:31;;;;;;;1.73;1.10;;;;;;;;;;4997201;28;20041;-77
2023/06/17 02:27:57;;;;;;;1.30;1.20;;;;;;;;;;4996594;28;20037;-77
2023/06/17 02:30:23;;;;;;;1.52;1.00;;;;;;;;;;5002583;28;20041;-78
2023/06/17 02:32:49;;;;;;;1.25;1.13;;;;;;;;;;5001240;28;20050;-77
2023/06/17 02:35:15;;;;;;;1.48;1.13;;;;;;;;;;4990206;28;20389;-77
2023/06/17 02:37:41;;;;;;;1.58;1.10;;;;;;;;;;4996192;28;20057;-77
2023/06/17 02:40:08;;;;;;;3.80;1.10;;;;;;;;;;4998636;28;20038;-77
2023/06/17 02:42:37;;;;;;;2.80;0.93;;;;;;;;;;4999050;28;20099;-77
2023/06/17 02:45:04;;;;;;;2.13;1.13;;;;;;;;;;5004365;28;20041;-77
2023/06/17 02:47:30;;;;;;;1.58;1.15;;;;;;;;;;5003267;28;20089;-77
2023/06/17 02:49:56;;;;;;;0.82;0.82;;;;;;;;;;5000080;28;20413;-77
2023/06/17 02:52:23;;;;;;;2.47;1.35;;;;;;;;;;5004539;28;20024;-77
2023/06/17 02:54:49;;;;;;;0.80;0.80;;;;;;;;;;5000306;28;20034;-77
2023/06/17 02:57:16;;;;;;;2.90;1.20;;;;;;;;;;5001039;28;20037;-77
2023/06/17 02:59:42;;;;;;;1.17;0.98;;;;;;;;;;4989309;28;20018;-76
2023/06/17 03:02:08;;;;;;;1.70;1.00;;;;;;;;;;4995930;28;20030;-76
2023/06/17 03:04:35;;;;;;;2.15;1.13;;;;;;;;;;5004191;28;20070;-77
2023/06/17 03:07:04;;;;;;;1.00;0.73;;;;;;;;;;4999207;28;20424;-76
2023/06/17 03:09:30;;;;;;;1.33;1.00;;;;;;;;;;4993542;28;20069;-76
2023/06/17 03:11:57;;;;;;;1.10;1.00;;;;;;;;;;4996907;28;20029;-76
2023/06/17 03:14:23;;;;;;;1.45;1.23;;;;;;;;;;5001817;28;20038;-76
2023/06/17 03:16:48;;;;;;;1.52;0.90;;;;;;;;;;4995676;28;20026;-77
2023/06/17 03:19:17;;;;;;;1.58;1.02;;;;;;;;;;4991819;28;20029;-76
2023/06/17 03:21:45;;;;;;;1.40;1.13;;;;;;;;;;4997917;28;20520;-77
2023/06/17 03:24:11;;;;;;;1.27;1.17;;;;;;;;;;5002263;28;20044;-77
2023/06/17 03:26:37;;;;;;;1.58;1.13;;;;;;;;;;5001826;28;20046;-76
2023/06/17 03:29:04;;;;;;;2.45;1.40;;;;;;;;;;4996377;28;20532;-77
2023/06/17 03:31:30;;;;;;;1.20;1.10;;;;;;;;;;4993782;28;20029;-76
2023/06/17 03:33:56;;;;;;;0.88;0.88;;;;;;;;;;5007694;28;20030;-76
2023/06/17 03:36:25;;;;;;;0.98;0.93;;;;;;;;;;5006602;28;20548;-77
2023/06/17 03:38:51;;;;;;;1.20;1.00;;;;;;;;;;4998482;28;20484;-77
2023/06/17 03:41:17;;;;;;;3.10;1.40;;;;;;;;;;4991820;28;20089;-76
2023/06/17 03:43:43;;;;;;;1.70;0.95;;;;;;;;;;4997915;28;20042;-76
2023/06/17 03:46:09;;;;;;;1.25;1.13;;;;;;;;;;5001463;28;20025;-76
2023/06/17 03:48:35;;;;;;;1.20;1.00;;;;;;;;;;5008071;28;20029;-76
2023/06/17 03:51:02;;;;;;;1.58;1.02;;;;;;;;;;4999250;28;20027;-76
2023/06/17 03:53:28;;;;;;;1.33;1.23;;;;;;;;;;4989553;28;20581;-76
2023/06/17 03:55:53;;;;;;;1.63;1.08;;;;;;;;;;4990414;28;20025;-75
2023/06/17 03:58:20;;;;;;;1.95;1.13;;;;;;;;;;5005704;28;20477;-76
2023/06/17 04:00:47;;;;;;;1.20;1.10;;;;;;;;;;4997525;28;20502;-76
2023/06/17 04:03:13;;;;;;;1.17;1.05;;;;;;;;;;4994842;28;20030;-75
2023/06/17 04:05:41;;;;;;;4.03;1.40;;;;;;;;;;4999889;28;20505;-76
2023/06/17 04:08:07;;;;;;;1.10;1.00;;;;;;;;;;4999238;28;20084;-76
2023/06/17 04:10:33;;;;;;;1.17;1.08;;;;;;;;;;5002550;28;20025;-75
2023/06/17 04:12:59;;;;;;;2.72;1.83;;;;;;;;;;5001037;28;20027;-76
2023/06/17 04:15:25;;;;;;;1.55;1.20;;;;;;;;;;4997183;28;20117;-76
2023/06/17 04:17:51;;;;;;;1.15;1.00;;;;;;;;;;4988485;28;20153;-76
2023/06/17 04:20:17;;;;;;;1.63;1.20;;;;;;;;;;4999110;28;20393;-76
2023/06/17 04:22:44;;;;;;;0.90;0.80;;;;;;;;;;4997041;28;20036;-74
2023/06/17 04:25:10;;;;;;;1.15;0.95;;;;;;;;;;4995689;28;20113;-75
2023/06/17 04:27:38;;;;;;;1.85;1.20;;;;;;;;;;4994174;28;20088;-75
2023/06/17 04:30:05;;;;;;;1.40;1.30;;;;;;;;;;4999820;28;20116;-75
2023/06/17 04:32:34;;;;;;;1.20;1.10;;;;;;;;;;4995174;28;20038;-75
2023/06/17 04:35:03;;;;;;;2.90;1.23;;;;;;;;;;4996556;28;20030;-75
2023/06/17 04:37:29;;;;;;;1.95;1.30;;;;;;;;;;5000544;28;20026;-75
2023/06/17 04:39:56;;;;;;;2.55;1.50;;;;;;;;;;5002230;28;20037;-75
2023/06/17 04:42:23;;;;;;;1.30;1.20;;;;;;;;;;4999104;28;20193;-75
2023/06/17 04:44:49;;;;;;;1.30;1.08;;;;;;;;;;5001669;28;20036;-75
2023/06/17 04:47:16;;;;;;;2.42;1.35;;;;;;;;;;4999488;28;20034;-75
2023/06/17 04:49:44;;;;;;;2.25;1.20;;;;;;;;;;4998427;28;20034;-75
2023/06/17 04:52:10;;;;;;;2.67;1.40;;;;;;;;;;5000171;28;20026;-75
2023/06/17 04:54:36;;;;;;;1.20;1.00;;;;;;;;;;5001883;28;20377;-75
2023/06/17 04:57:02;;;;;;;2.17;1.30;;;;;;;;;;4998640;28;20469;-75
2023/06/17 04:59:29;;;;;;;1.58;1.23;;;;;;;;;;5008754;28;20058;-75
2023/06/17 05:01:55;;;;;;;2.03;1.10;;;;;;;;;;5010028;28;20033;-75
2023/06/17 05:04:20;;;;;;;1.30;1.20;;;;;;;;;;4997226;28;20600;-75
2023/06/17 05:06:47;;;;;;;1.27;1.00;;;;;;;;;;5000685;28;20032;-74
2023/06/17 05:09:13;;;;;;;2.97;1.52;;;;;;;;;;5001452;28;20026;-75
2023/06/17 05:11:40;;;;;;;1.83;1.63;;;;;;;;;;4999784;28;20045;-75
2023/06/17 05:14:06;;;;;;;2.78;1.42;;;;;;;;;;4993176;28;20026;-75
2023/06/17 05:16:32;;;;;;;1.80;1.50;;;;;;;;;;4998770;28;20060;-75
2023/06/17 05:18:58;;;;;;;1.27;1.17;;;;;;;;;;5000817;28;20022;-75
2023/06/17 05:21:24;;;;;;;2.47;1.17;;;;;;;;;;4999891;28;20437;-75
2023/06/17 05:23:50;;;;;;;1.73;1.30;;;;;;;;;;5004459;28;20060;-74
2023/06/17 05:26:17;;;;;;;1.13;1.02;;;;;;;;;;5001013;28;20077;-75
2023/06/17 05:28:43;;;;;;;1.83;1.42;;;;;;;;;;5001812;28;20034;-75
2023/06/17 05:31:09;;;;;;;1.75;1.33;;;;;;;;;;5008659;28;20025;-75
2023/06/17 05:33:36;;;;;;;1.42;1.20;;;;;;;;;;5007004;28;20362;-75
2023/06/17 05:36:02;;;;;;;2.38;1.40;;;;;;;;;;5002376;28;20018;-76
2023/06/17 05:38:28;;;;;;;1.48;1.20;;;;;;;;;;5000817;28;20408;-75
2023/06/17 05:40:54;;;;;;;2.22;1.60;;;;;;;;;;5001067;28;20034;-75
2023/06/17 05:43:20;;;;;;;1.65;1.35;;;;;;;;;;5010779;28;20033;-75
2023/06/17 05:45:46;;;;;;;1.33;1.23;;;;;;;;;;4996678;28;20118;-75
2023/06/17 05:48:12;;;;;;;2.67;1.23;;;;;;;;;;4994701;28;20091;-75
2023/06/17 05:50:38;;;;;;;2.17;1.27;;;;;;;;;;5003096;28;20574;-75
2023/06/17 05:53:05;;;;;;;2.30;1.80;;;;;;;;;;5002508;28;20030;-75
2023/06/17 05:55:31;;;;;;;1.52;1.20;;;;;;;;;;4997160;28;20026;-74
2023/06/17 05:57:57;;;;;;;1.60;1.30;;;;;;;;;;4999738;28;20794;-74
2023/06/17 06:00:23;;;;;;;1.52;1.20;;;;;;;;;;4998998;28;20156;-74
2023/06/17 06:02:49;;;;;;;2.28;1.30;;;;;;;;;;4998944;28;20037;-75
2023/06/17 06:05:15;;;;;;;3.60;2.00;;;;;;;;;;4999448;28;20137;-75
2023/06/17 06:07:43;;;;;;;1.50;1.30;;;;;;;;;;4994342;28;20536;-75
2023/06/17 06:10:09;;;;;;;1.60;1.23;;;;;;;;;;4994133;28;20122;-75
2023/06/17 06:12:35;;;;;;;4.03;1.58;;;;;;;;;;4999165;28;20031;-75
2023/06/17 06:15:01;;;;;;;1.42;1.33;;;;;;;;;;5001800;28;20052;-75
2023/06/17 06:17:28;;;;;;;2.33;1.50;;;;;;;;;;4998155;28;20037;-77
2023/06/17 06:19:54;;;;;;;1.90;1.42;;;;;;;;;;4998680;28;20022;-75
2023/06/17 06:22:19;;;;;;;1.45;1.25;;;;;;;;;;4999712;28;20029;-74
2023/06/17 06:24:45;;;;;;;1.30;1.17;;;;;;;;;;5005786;28;20513;-75
2023/06/17 06:27:11;;;;;;;2.80;1.60;;;;;;;;;;5000881;28;20022;-74
2023/06/17 06:29:37;;;;;;;2.35;1.73;;;;;;;;;;5003645;28;20432;-75
2023/06/17 06:32:03;;;;;;;1.90;1.55;;;;;;;;;;5001609;28;20681;-77
2023/06/17 06:34:30;;;;;;;1.98;1.42;;;;;;;;;;4997183;28;20041;-77
2023/06/17 06:36:58;;;;;;;2.95;1.73;;;;;;;;;;5004248;28;20737;-74
2023/06/17 06:39:23;;;;;;;2.15;1.30;;;;;;;;;;4998489;28;20403;-76
2023/06/17 06:41:49;;;;;;;2.17;1.55;;;;;;;;;;4989987;28;20018;-76
2023/06/17 06:44:16;;;;;;;2.10;1.67;;;;;;;;;;5003938;28;20520;-76
2023/06/17 06:46:42;;;;;;;2.22;1.60;;;;;;;;;;5008582;28;20026;-75
2023/06/17 06:49:08;;;;;;;1.50;1.23;;;;;;;;;;5003723;28;20057;-75
2023/06/17 06:51:34;;;;;;;1.33;1.20;;;;;;;;;;5008483;28;20026;-75
2023/06/17 06:54:00;;;;;;;3.55;2.00;;;;;;;;;;4995393;28;20032;-75
2023/06/17 06:56:26;;;;;;;2.28;1.42;;;;;;;;;;5001928;28;20034;-75
2023/06/17 06:58:52;;;;;;;2.53;1.77;;;;;;;;;;5007464;28;20487;-76
2023/06/17 07:01:18;;;;;;;1.13;0.90;;;;;;;;;;5005198;28;20042;-75
2023/06/17 07:03:45;;;;;;;2.13;1.63;;;;;;;;;;4999031;28;20030;-75
2023/06/17 07:06:10;;;;;;;1.63;1.42;;;;;;;;;;4999826;28;20050;-76
2023/06/17 07:08:45;;;;;;;1.40;1.30;;;;;;;;;;4993214;28;20503;-76
2023/06/17 07:11:11;;;;;;;2.15;1.45;;;;;;;;;;4989995;28;20041;-76
2023/06/17 07:13:37;;;;;;;2.75;1.40;;;;;;;;;;4991031;28;20034;-75
2023/06/17 07:16:06;;;;;;;2.17;1.35;;;;;;;;;;4999636;28;20717;-76
2023/06/17 07:18:32;;;;;;;1.80;1.38;;;;;;;;;;5001810;28;20029;-76
2023/06/17 07:20:58;;;;;;;1.40;1.30;;;;;;;;;;5002602;28;20036;-75
2023/06/17 07:23:24;;;;;;;1.92;1.10;;;;;;;;;;5005797;28;20043;-75
2023/06/17 07:25:50;;;;;;;2.25;1.40;;;;;;;;;;5004670;28;20034;-76
2023/06/17 07:28:16;;;;;;;2.45;1.40;;;;;;;;;;4995624;28;20122;-76
2023/06/17 07:30:42;;;;;;;1.95;1.60;;;;;;;;;;5004608;28;20496;-76
2023/06/17 07:33:08;;;;;;;2.97;1.75;;;;;;;;;;4998565;28;20044;-76
2023/06/17 07:35:34;;;;;;;1.63;1.30;;;;;;;;;;4996156;28;20373;-77
2023/06/17 07:38:00;;;;;;;1.65;1.40;;;;;;;;;;4997356;28;20355;-74
2023/06/17 07:40:26;;;;;;;3.20;1.75;;;;;;;;;;4995213;28;20042;-75
2023/06/17 07:42:52;;;;;;;1.58;1.48;;;;;;;;;;4995565;28;20116;-74
2023/06/17 07:45:18;;;;;;;1.80;1.45;;;;;;;;;;4993683;28;20037;-74
2023/06/17 07:47:44;;;;;;;2.85;1.73;;;;;;;;;;5002172;28;20022;-75
2023/06/17 07:50:10;;;;;;;2.17;1.60;;;;;;;;;;4993150;28;20026;-75
2023/06/17 07:52:36;;;;;;;1.70;1.45;;;;;;;;;;4992966;28;20539;-75
2023/06/17 07:55:03;;;;;;;2.28;1.45;;;;;;;;;;4997425;28;20031;-74
2023/06/17 07:57:29;;;;;;;2.05;1.45;;;;;;;;;;4998006;28;20033;-79
2023/06/17 07:59:55;;;;;;;2.08;1.65;;;;;;;;;;4991228;28;20038;-80
2023/06/17 08:02:21;;;;;;;1.98;1.60;;;;;;;;;;4995081;28;20034;-76
2023/06/17 08:04:47;;;;;;;1.70;1.27;;;;;;;;;;5000623;28;20038;-73
2023/06/17 08:07:16;;;;;;;2.35;1.40;;;;;;;;;;4992861;28;20030;-74
2023/06/17 08:09:42;;;;;;;1.63;1.33;;;;;;;;;;5003402;28;20557;-75
2023/06/17 08:12:09;;;;;;;1.63;1.52;;;;;;;;;;5001639;28;20026;-75
2023/06/17 08:14:35;;;;;;;2.65;1.42;;;;;;;;;;5007028;28;20094;-75
2023/06/17 08:17:01;;;;;;;1.52;1.30;;;;;;;;;;5006162;28;20022;-75
2023/06/17 08:19:26;;;;;;;2.38;1.50;;;;;;;;;;4988663;28;20393;-75
2023/06/17 08:22:08;;;;;;;2.47;1.58;;;;;;;;;;4993942;28;20033;-80
2023/06/17 08:24:34;;;;;;;2.08;1.38;;;;;;;;;;4988015;28;20037;-77
2023/06/17 08:27:00;;;;;;;1.63;1.27;;;;;;;;;;4999011;28;20053;-76
2023/06/17 08:29:26;;;;;;;3.88;1.77;;;;;;;;;;5001285;28;20060;-75
2023/06/17 08:31:53;;;;;;;1.63;1.40;;;;;;;;;;5000047;28;20482;-77
2023/06/17 08:34:19;;;;;;;2.47;1.70;;;;;;;;;;5010949;28;20448;-77
2023/06/17 08:36:49;;;;;;;3.25;1.85;;;;;;;;;;5008814;28;20041;-77
2023/06/17 08:39:18;;;;;;;1.98;1.55;;;;;;;;;;5006747;28;20061;-75
2023/06/17 08:41:44;;;;;;;1.85;1.55;;;;;;;;;;5001112;28;20052;-75
2023/06/17 08:44:11;;;;;;;1.50;1.40;;;;;;;;;;5008952;28;20592;-78
2023/06/17 08:46:37;;;;;;;1.98;1.42;;;;;;;;;;5005340;28;20022;-75
2023/06/17 08:49:03;;;;;;;2.28;1.90;;;;;;;;;;4998533;28;20037;-75
2023/06/17 08:51:30;;;;;;;1.77;1.60;;;;;;;;;;4997267;28;20319;-77
2023/06/17 08:53:57;;;;;;;2.40;1.63;;;;;;;;;;5006413;28;20022;-76
2023/06/17 08:56:23;;;;;;;2.40;1.63;;;;;;;;;;5012056;28;20037;-76
2023/06/17 08:58:55;;;;;;;1.80;1.42;;;;;;;;;;5008976;28;20017;-76
2023/06/17 09:01:25;;;;;;;4.68;1.60;;;;;;;;;;4996660;28;20057;-78
2023/06/17 09:03:52;;;;;;;3.47;1.77;;;;;;;;;;5002992;28;20038;-75
2023/06/17 09:06:23;;;;;;;2.03;1.67;;;;;;;;;;5001859;28;20044;-76
2023/06/17 09:08:50;;;;;;;2.38;1.67;;;;;;;;;;5009470;28;20100;-76
2023/06/17 09:11:16;;;;;;;1.92;1.58;;;;;;;;;;4993757;28;20244;-77
2023/06/17 09:13:42;;;;;;;3.15;1.40;;;;;;;;;;4995650;28;20027;-75
2023/06/17 09:16:08;;;;;;;3.17;1.60;;;;;;;;;;4999766;28;20113;-77
2023/06/17 09:18:35;;;;;;;2.33;1.98;;;;;;;;;;5009935;28;20026;-76
2023/06/17 09:21:04;;;;;;;2.33;1.77;;;;;;;;;;5002249;28;20062;-76
2023/06/17 09:23:30;;;;;;;4.15;2.03;;;;;;;;;;5001085;28;20125;-75
2023/06/17 09:26:03;;;;;;;1.60;1.38;;;;;;;;;;4999862;28;20129;-76
2023/06/17 09:28:29;;;;;;;2.33;1.80;;;;;;;;;;5000237;28;20025;-75
2023/06/17 09:30:57;;;;;;;2.47;1.73;;;;;;;;;;5005597;28;20493;-74
2023/06/17 09:33:24;;;;;;;1.98;1.58;;;;;;;;;;4998918;28;20073;-75
2023/06/17 09:36:08;;;;;;;2.42;1.75;;;;;;;;;;4994966;28;20110;-83
2023/06/17 09:38:36;;;;;;;3.00;2.20;;;;;;;;;;4992941;28;20481;-80
2023/06/17 09:41:03;;;;;;;2.50;1.52;;;;;;;;;;5002745;28;20030;-82
2023/06/17 09:43:29;;;;;;;2.53;2.00;;;;;;;;;;4995341;28;20040;-79
2023/06/17 09:46:01;;;;;;;2.05;1.85;;;;;;;;;;5001508;28;20034;-79
2023/06/17 09:48:34;;;;;;;2.42;1.80;;;;;;;;;;5002619;28;20449;-81
2023/06/17 09:51:01;;;;;;;1.48;1.35;;;;;;;;;;5010046;28;20022;-85
2023/06/17 09:53:29;;;;;;;2.25;1.70;;;;;;;;;;5006413;28;20075;-75
2023/06/17 09:55:57;;;;;;;2.03;1.58;;;;;;;;;;5014152;28;20033;-78
2023/06/17 09:58:26;;;;;;;2.60;1.90;;;;;;;;;;4994538;28;20057;-79
2023/06/17 10:00:52;;;;;;;3.10;1.90;;;;;;;;;;4987672;28;20029;-80
2023/06/17 10:03:18;;;;;;;2.80;1.58;;;;;;;;;;5008984;28;20075;-79
2023/06/17 10:05:53;;;;;;;3.05;1.73;;;;;;;;;;4976655;28;1008755;-80
2023/06/17 10:08:20;;;;;;;2.08;1.85;;;;;;;;;;4992018;28;20463;-79
2023/06/17 10:10:47;;;;;;;3.60;2.08;;;;;;;;;;5012099;28;20025;-79
2023/06/17 10:13:14;;;;;;;3.10;2.00;;;;;;;;;;5014491;28;20033;-78
2023/06/17 10:15:40;;;;;;;3.75;2.20;;;;;;;;;;5008012;28;20105;-78
2023/06/17 10:18:08;;;;;;;3.15;2.13;;;;;;;;;;4992488;28;20026;-78
2023/06/17 10:20:34;;;;;;;4.70;2.45;;;;;;;;;;5010571;28;20037;-78
2023/06/17 10:23:01;;;;;;;2.80;2.13;;;;;;;;;;5001387;28;20060;-81
2023/06/17 10:25:27;;;;;;;3.20;2.05;;;;;;;;;;5012978;28;20025;-81
2023/06/17 10:27:54;;;;;;;3.65;2.22;;;;;;;;;;4997838;28;20022;-82
2023/06/17 10:30:27;;;;;;;3.78;2.55;;;;;;;;;;4992671;28;20497;-81
2023/06/17 10:33:01;;;;;;;2.75;2.20;;;;;;;;;;5001066;28;20072;-83
2023/06/17 10:35:44;;;;;;;2.92;2.30;;;;;;;;;;4994153;28;20513;-77
2023/06/17 10:38:10;;;;;;;3.00;2.20;;;;;;;;;;4996844;28;20240;-81
2023/06/17 10:40:56;;;;;;;3.75;2.70;;;;;;;;;;4989672;28;20148;-80
2023/06/17 10:43:22;;;;;;;2.95;2.17;;;;;;;;;;5004095;28;20033;-80
2023/06/17 10:45:55;;;;;;;7.55;2.15;;;;;;;;;;5003556;28;20030;-80
2023/06/17 10:48:23;;;;;;;3.45;2.20;;;;;;;;;;5015253;28;20030;-80
2023/06/17 10:50:56;;;;;;;4.90;2.92;;;;;;;;;;5013715;28;20030;-80
2023/06/17 10:53:29;;;;;;;3.78;2.75;;;;;;;;;;5022362;28;20025;-80
2023/06/17 10:55:56;;;;;;;4.25;2.70;;;;;;;;;;5019072;28;20109;-82
2023/06/17 10:58:22;;;;;;;3.55;2.58;;;;;;;;;;5009979;28;20038;-82
2023/06/17 11:00:57;;;;;;;3.35;2.72;;;;;;;;;;5011523;28;20528;-80
2023/06/17 11:03:23;;;;;;;4.38;2.90;;;;;;;;;;5005894;28;20026;-80
2023/06/17 11:05:50;;;;;;;3.55;2.03;;;;;;;;;;5013657;28;20165;-81
2023/06/17 11:08:16;;;;;;;3.50;1.92;;;;;;;;;;5006395;28;20036;-80
2023/06/17 11:10:42;;;;;;;2.58;1.73;;;;;;;;;;5021585;28;20026;-81
2023/06/17 11:13:08;;;;;;;5.05;1.80;;;;;;;;;;4992880;28;20030;-81
2023/06/17 11:15:34;;;;;;;3.65;2.42;;;;;;;;;;5011789;28;20049;-81
2023/06/17 11:18:01;;;;;;;3.05;1.90;;;;;;;;;;5002085;28;20033;-81
2023/06/17 11:20:28;;;;;;;3.22;2.20;;;;;;;;;;5017725;28;20029;-81
2023/06/17 11:22:54;;;;;;;2.22;2.03;;;;;;;;;;5003952;28;20034;-81
2023/06/17 11:25:20;;;;;;;4.53;2.10;;;;;;;;;;5015591;28;20025;-81
2023/06/17 11:27:46;;;;;;;4.25;2.15;;;;;;;;;;5014899;28;20124;-81
2023/06/17 11:30:13;;;;;;;2.90;1.88;;;;;;;;;;5015999;28;20112;-80
2023/06/17 11:32:43;;;;;;;2.13;1.90;;;;;;;;;;5010534;28;20402;-81
2023/06/17 11:35:09;;;;;;;2.83;1.80;;;;;;;;;;5006457;28;20201;-80
2023/06/17 11:37:35;;;;;;;1.85;1.60;;;;;;;;;;4992988;28;20049;-76
2023/06/17 11:40:04;;;;;;;4.75;1.88;;;;;;;;;;4991956;28;20030;-73
2023/06/17 11:42:30;;;;;;;2.85;2.10;;;;;;;;;;4997888;28;20086;-79
2023/06/17 11:44:56;;;;;;;5.82;2.08;;;;;;;;;;5000481;28;20050;-75
2023/06/17 11:47:33;;;;;;;2.75;1.80;;;;;;;;;;5007586;28;20030;-77
2023/06/17 11:49:59;;;;;;;2.60;1.83;;;;;;;;;;5008748;28;20026;-75
2023/06/17 11:52:38;;;;;;;3.30;2.28;;;;;;;;;;5013195;28;20034;-75
2023/06/17 11:55:05;;;;;;;3.13;2.00;;;;;;;;;;5009626;28;20038;-76
2023/06/17 11:57:32;;;;;;;3.13;2.25;;;;;;;;;;5005786;28;20025;-73
2023/06/17 12:00:09;;;;;;;5.40;2.35;;;;;;;;;;4995898;28;20715;-75
2023/06/17 12:02:43;;;;;;;2.25;1.83;;;;;;;;;;5010917;28;20155;-75
2023/06/17 12:05:10;;;;;;;2.38;1.60;;;;;;;;;;5011816;28;20049;-74
2023/06/17 12:07:39;;;;;;;2.10;1.75;;;;;;;;;;5015455;28;20037;-76
2023/06/17 12:10:06;;;;;;;2.42;1.90;;;;;;;;;;5008707;28;20045;-74
2023/06/17 12:12:34;;;;;;;1.98;1.58;;;;;;;;;;5011984;28;20026;-74
2023/06/17 12:15:06;;;;;;;3.30;1.88;;;;;;;;;;5008375;28;20037;-76
2023/06/17 12:17:46;;;;;;;3.50;2.17;;;;;;;;;;4992540;28;20113;-75
2023/06/17 12:20:13;;;;;;;2.75;1.60;;;;;;;;;;5007710;28;20078;-75
2023/06/17 12:22:39;;;;;;;2.47;1.55;;;;;;;;;;5011896;28;20029;-75
2023/06/17 12:25:06;;;;;;;2.55;1.60;;;;;;;;;;5014107;28;20022;-75
2023/06/17 12:27:33;;;;;;;1.77;1.45;;;;;;;;;;4988432;28;20026;-76
2023/06/17 12:30:00;;;;;;;2.80;1.60;;;;;;;;;;5002170;28;20030;-75
2023/06/17 12:32:30;;;;;;;1.60;1.50;;;;;;;;;;5006552;28;20064;-74
2023/06/17 12:34:56;;;;;;;2.10;1.60;;;;;;;;;;5002894;28;20033;-74
2023/06/17 12:37:24;;;;;;;3.08;1.60;;;;;;;;;;5003015;28;20591;-74
2023/06/17 12:39:50;;;;;;;2.17;1.88;;;;;;;;;;5006608;28;20022;-76
2023/06/17 12:42:17;;;;;;;2.10;1.38;;;;;;;;;;4996532;28;20033;-76
2023/06/17 12:44:44;;;;;;;2.42;1.35;;;;;;;;;;5003943;28;20394;-76
2023/06/17 12:47:11;;;;;;;1.73;1.42;;;;;;;;;;5010832;28;20026;-75
2023/06/17 12:49:40;;;;;;;1.80;1.40;;;;;;;;;;4983329;28;20092;-76
2023/06/17 12:52:06;;;;;;;2.30;1.50;;;;;;;;;;5001354;28;20033;-78
2023/06/17 12:54:32;;;;;;;2.10;1.75;;;;;;;;;;4999567;28;20050;-76
2023/06/17 12:56:58;;;;;;;1.60;1.50;;;;;;;;;;5005997;28;20037;-75
2023/06/17 12:59:24;;;;;;;2.22;1.58;;;;;;;;;;4998907;28;20026;-79
2023/06/17 13:01:50;;;;;;;2.10;1.60;;;;;;;;;;5002450;28;20018;-75
2023/06/17 13:04:16;;;;;;;2.33;1.50;;;;;;;;;;4991798;28;20104;-78
2023/06/17 13:06:44;;;;;;;1.73;1.48;;;;;;;;;;5000945;28;21036;-78
2023/06/17 13:09:10;;;;;;;1.75;1.45;;;;;;;;;;5010413;28;20042;-77
2023/06/17 13:11:36;;;;;;;1.85;1.65;;;;;;;;;;5003174;28;20030;-79
2023/06/17 13:14:03;;;;;;;3.00;1.85;;;;;;;;;;4996864;28;20034;-77
2023/06/17 13:16:29;;;;;;;2.00;1.70;;;;;;;;;;4994811;28;20034;-76
2023/06/17 13:18:56;;;;;;;2.63;1.70;;;;;;;;;;5004692;28;20022;-80
2023/06/17 13:21:22;;;;;;;2.58;1.80;;;;;;;;;;4997953;28;20060;-82
2023/06/17 13:23:49;;;;;;;2.50;1.50;;;;;;;;;;5002278;28;20057;-80
2023/06/17 13:26:15;;;;;;;2.38;1.67;;;;;;;;;;5014059;28;20037;-80
2023/06/17 13:28:41;;;;;;;2.50;1.92;;;;;;;;;;5019254;28;20022;-78
2023/06/17 13:31:07;;;;;;;2.80;1.92;;;;;;;;;;5015441;28;20027;-79
2023/06/17 13:33:33;;;;;;;2.08;1.80;;;;;;;;;;4999322;28;20018;-77
2023/06/17 13:35:59;;;;;;;2.15;1.60;;;;;;;;;;4997968;28;20029;-80
2023/06/17 13:38:26;;;;;;;2.85;1.85;;;;;;;;;;5005875;28;20025;-78
2023/06/17 13:40:52;;;;;;;2.38;1.63;;;;;;;;;;5011178;28;20413;-80
2023/06/17 13:43:18;;;;;;;2.08;1.58;;;;;;;;;;5009949;28;20033;-78
2023/06/17 13:45:44;;;;;;;2.05;1.67;;;;;;;;;;5009318;28;20022;-77
2023/06/17 13:48:10;;;;;;;2.38;1.52;;;;;;;;;;5003320;28;20622;-79
2023/06/17 13:50:36;;;;;;;3.65;1.90;;;;;;;;;;5001728;28;20053;-81
2023/06/17 13:53:02;;;;;;;2.90;2.15;;;;;;;;;;4996947;28;20023;-81
2023/06/17 13:55:31;;;;;;;3.00;2.00;;;;;;;;;;5010262;28;21596;-85
2023/06/17 13:57:57;;;;;;;2.65;2.22;;;;;;;;;;4996768;28;20084;-88
2023/06/17 14:00:23;;;;;;;2.70;1.83;;;;;;;;;;5001229;28;20496;-79
2023/06/17 14:02:49;;;;;;;3.53;1.90;;;;;;;;;;5007776;28;20109;-79
2023/06/17 14:05:15;;;;;;;1.73;1.60;;;;;;;;;;5006084;28;20065;-79
2023/06/17 14:07:41;;;;;;;3.40;1.80;;;;;;;;;;4994551;28;20026;-79
2023/06/17 14:10:08;;;;;;;2.30;1.80;;;;;;;;;;5005861;28;20100;-78
2023/06/17 14:12:33;;;;;;;6.95;1.70;;;;;;;;;;5004921;28;20022;-79
2023/06/17 14:14:59;;;;;;;2.83;1.70;;;;;;;;;;5002933;28;20030;-80
2023/06/17 14:17:25;;;;;;;2.45;1.70;;;;;;;;;;5020023;28;20029;-80
2023/06/17 14:19:51;;;;;;;2.72;1.77;;;;;;;;;;5000841;28;20018;-80
2023/06/17 14:22:17;;;;;;;2.67;1.80;;;;;;;;;;5008526;28;20091;-79
2023/06/17 14:24:43;;;;;;;5.35;2.40;;;;;;;;;;4996670;28;20037;-80
2023/06/17 14:27:31;;;;;;;1.92;1.70;;;;;;;;;;5001760;28;20037;-79
2023/06/17 14:29:57;;;;;;;2.42;1.70;;;;;;;;;;5016045;28;20460;-79
2023/06/17 14:32:23;;;;;;;4.65;1.70;;;;;;;;;;5017000;28;20034;-79
2023/06/17 14:34:50;;;;;;;2.60;2.00;;;;;;;;;;5005321;28;20496;-78
2023/06/17 14:37:16;;;;;;;1.92;1.50;;;;;;;;;;5016228;28;21303;-79
2023/06/17 14:39:42;;;;;;;5.68;1.73;;;;;;;;;;5008564;28;20041;-79
2023/06/17 14:42:08;;;;;;;2.13;1.60;;;;;;;;;;5008370;28;20025;-79